Time;durP1;ratioP1;P1;durP2;ratioP2;P2;SDS_P1;SDS_P2;PMS_P1;PMS_P2;Temp;Humidity;BMP_temperature;BMP_pressure;BME280_temperature;BME280_humidity;BME280_pressure;Samples;Min_cycle;Max_cycle;Signal;HPM_P1;HPM_P2
2022/08/25 00:01:01;;;;;;;6.95;4.20;;;24.50;66.10;;;;;;5012132;28;20026;-78
2022/08/25 00:03:27;;;;;;;5.97;4.13;;;24.50;66.00;;;;;;5012167;28;20445;-78
2022/08/25 00:05:53;;;;;;;6.43;4.20;;;24.50;66.20;;;;;;5013127;28;20052;-78
2022/08/25 00:08:18;;;;;;;6.55;4.30;;;24.50;66.10;;;;;;5012837;28;20034;-78
2022/08/25 00:10:44;;;;;;;7.22;4.35;;;24.50;66.20;;;;;;5012722;28;20460;-77
2022/08/25 00:13:10;;;;;;;7.18;4.43;;;24.50;66.10;;;;;;5012937;28;20034;-78
2022/08/25 00:15:37;;;;;;;6.45;4.47;;;24.50;66.20;;;;;;5011585;28;20033;-78
2022/08/25 00:18:04;;;;;;;6.32;4.20;;;24.50;66.20;;;;;;5012742;28;20041;-78
2022/08/25 00:20:30;;;;;;;5.75;4.35;;;24.50;66.20;;;;;;5011437;28;20109;-78
2022/08/25 00:22:56;;;;;;;5.72;3.92;;;24.50;66.20;;;;;;5013268;28;20030;-78
2022/08/25 00:25:22;;;;;;;6.40;3.63;;;24.50;66.10;;;;;;5012820;28;20022;-78
2022/08/25 00:27:51;;;;;;;5.38;4.03;;;24.50;66.20;;;;;;5012237;28;20417;-78
2022/08/25 00:30:17;;;;;;;7.17;4.10;;;24.50;66.20;;;;;;5012366;28;20034;-78
2022/08/25 00:32:44;;;;;;;7.85;4.50;;;24.50;66.20;;;;;;5012677;28;20092;-78
2022/08/25 00:35:10;;;;;;;7.03;4.20;;;24.50;66.20;;;;;;5012600;28;20032;-78
2022/08/25 00:37:37;;;;;;;6.30;4.35;;;24.50;66.10;;;;;;5012369;28;20041;-78
2022/08/25 00:40:05;;;;;;;6.90;4.03;;;24.50;66.30;;;;;;5010882;28;20422;-78
2022/08/25 00:42:30;;;;;;;7.13;4.07;;;24.50;66.20;;;;;;5011374;28;20041;-78
2022/08/25 00:44:57;;;;;;;5.43;3.97;;;24.50;66.10;;;;;;5011251;28;20022;-77
2022/08/25 00:47:24;;;;;;;6.03;4.07;;;24.50;66.20;;;;;;5011236;28;20056;-78
2022/08/25 00:50:00;;;;;;;5.90;3.92;;;24.50;66.20;;;;;;5011989;28;20030;-78
2022/08/25 00:52:36;;;;;;;5.85;3.90;;;24.50;66.20;;;;;;5036013;23;20132;-73
2022/08/25 00:55:17;;;;;;;6.68;4.40;;;24.50;66.20;;;;;;5051679;28;20028;-73
2022/08/25 00:57:48;;;;;;;4.78;3.90;;;24.50;66.10;;;;;;5051845;28;20120;-74
2022/08/25 01:00:20;;;;;;;5.22;3.95;;;24.50;66.20;;;;;;5033758;28;20119;-73
2022/08/25 01:02:46;;;;;;;5.75;4.05;;;24.40;66.10;;;;;;5017910;28;20033;-73
2022/08/25 01:05:12;;;;;;;5.68;3.75;;;24.50;66.20;;;;;;5051757;28;20104;-74
2022/08/25 01:07:39;;;;;;;7.22;4.10;;;24.50;66.10;;;;;;5051765;28;20116;-74
2022/08/25 01:10:07;;;;;;;4.70;3.72;;;24.50;66.10;;;;;;5000888;28;20041;-73
2022/08/25 01:12:35;;;;;;;6.15;3.80;;;24.50;66.10;;;;;;5033882;28;20530;-73
2022/08/25 01:15:02;;;;;;;6.50;4.10;;;24.50;66.00;;;;;;5051646;28;20029;-73
2022/08/25 01:17:44;;;;;;;5.43;3.90;;;24.50;66.10;;;;;;5033762;28;20043;-73
2022/08/25 01:20:11;;;;;;;5.28;4.05;;;24.50;65.80;;;;;;5033661;28;20444;-74
2022/08/25 01:22:37;;;;;;;5.43;3.97;;;24.50;66.00;;;;;;5051391;28;20460;-73
2022/08/25 01:25:19;;;;;;;7.07;4.15;;;24.50;65.90;;;;;;5051610;28;20079;-73
2022/08/25 01:27:45;;;;;;;6.20;4.10;;;24.50;66.00;;;;;;5034113;28;20029;-73
2022/08/25 01:30:11;;;;;;;6.05;4.10;;;24.50;65.90;;;;;;5051126;28;20116;-73
2022/08/25 01:32:40;;;;;;;7.55;4.13;;;24.50;65.90;;;;;;5017960;28;20485;-73
2022/08/25 01:35:06;;;;;;;5.70;4.00;;;24.50;65.90;;;;;;5051937;28;20037;-73
2022/08/25 01:37:33;;;;;;;5.55;3.85;;;24.50;65.90;;;;;;5033497;28;20037;-73
2022/08/25 01:39:59;;;;;;;5.93;3.90;;;24.50;66.10;;;;;;5053295;28;20044;-73
2022/08/25 01:42:41;;;;;;;4.93;3.80;;;24.50;66.00;;;;;;5055379;28;20021;-73
2022/08/25 01:45:09;;;;;;;6.05;3.90;;;24.50;66.00;;;;;;5055475;28;20029;-73
2022/08/25 01:47:36;;;;;;;5.25;3.80;;;24.50;66.00;;;;;;5037507;28;20037;-73
2022/08/25 01:50:04;;;;;;;5.57;3.47;;;24.50;66.10;;;;;;5037315;28;20033;-73
2022/08/25 01:52:44;;;;;;;5.38;3.72;;;24.40;66.00;;;;;;5055139;28;20040;-73
2022/08/25 01:55:10;;;;;;;6.78;3.60;;;24.50;66.00;;;;;;5037665;28;20033;-73
2022/08/25 01:57:36;;;;;;;5.18;3.70;;;24.50;66.10;;;;;;5037365;28;20029;-74
2022/08/25 02:00:06;;;;;;;6.43;3.97;;;24.50;66.10;;;;;;5037012;28;20566;-73
2022/08/25 02:02:37;;;;;;;6.10;3.70;;;24.40;66.00;;;;;;5054993;28;20025;-73
2022/08/25 02:05:02;;;;;;;4.90;3.65;;;24.50;66.00;;;;;;5037160;28;20526;-73
2022/08/25 02:07:28;;;;;;;4.88;3.63;;;24.40;66.10;;;;;;5037237;28;20037;-73
2022/08/25 02:09:54;;;;;;;4.93;3.60;;;24.50;66.20;;;;;;5036949;28;20033;-73
2022/08/25 02:12:20;;;;;;;5.70;3.85;;;24.40;66.00;;;;;;5054893;28;20032;-73
2022/08/25 02:14:46;;;;;;;5.28;3.72;;;24.40;66.10;;;;;;5036986;28;20029;-73
2022/08/25 02:17:11;;;;;;;6.15;3.65;;;24.40;66.00;;;;;;5036881;28;20496;-73
2022/08/25 02:19:37;;;;;;;5.70;3.88;;;24.40;66.10;;;;;;5054418;28;20033;-73
2022/08/25 02:22:03;;;;;;;5.70;3.95;;;24.40;66.00;;;;;;5054663;28;20053;-73
2022/08/25 02:24:29;;;;;;;6.68;3.85;;;24.50;66.10;;;;;;5036933;28;20036;-73
2022/08/25 02:26:55;;;;;;;5.30;3.67;;;24.40;65.90;;;;;;5054730;28;20112;-73
2022/08/25 02:29:21;;;;;;;4.30;3.45;;;24.40;66.00;;;;;;5054316;28;20025;-73
2022/08/25 02:31:47;;;;;;;6.20;3.95;;;24.40;66.00;;;;;;5036638;28;20401;-73
2022/08/25 02:34:14;;;;;;;4.95;3.75;;;24.40;66.00;;;;;;5036734;28;20029;-73
2022/08/25 02:36:40;;;;;;;6.07;3.80;;;24.40;66.00;;;;;;5036700;28;20452;-73
2022/08/25 02:39:07;;;;;;;5.93;3.83;;;24.40;66.00;;;;;;5036265;28;20021;-73
2022/08/25 02:41:33;;;;;;;6.90;3.70;;;24.40;66.00;;;;;;5054434;28;20492;-73
2022/08/25 02:44:01;;;;;;;4.18;3.20;;;24.40;65.90;;;;;;5019950;28;20493;-73
2022/08/25 02:46:26;;;;;;;4.93;3.50;;;24.40;66.40;;;;;;5054303;28;20112;-73
2022/08/25 02:48:54;;;;;;;4.93;3.72;;;24.40;65.90;;;;;;5053930;28;20520;-73
2022/08/25 02:51:22;;;;;;;4.47;3.30;;;24.40;65.90;;;;;;5035739;28;20033;-73
2022/08/25 02:53:48;;;;;;;4.90;3.70;;;24.40;65.90;;;;;;5036258;28;20143;-73
2022/08/25 02:56:17;;;;;;;6.70;3.90;;;24.40;65.80;;;;;;5036290;28;20059;-73
2022/08/25 02:58:44;;;;;;;5.50;3.63;;;24.40;65.90;;;;;;5019571;28;20061;-73
2022/08/25 03:01:10;;;;;;;5.45;3.42;;;24.50;65.80;;;;;;5054046;28;20025;-73
2022/08/25 03:03:41;;;;;;;4.75;3.72;;;24.40;65.70;;;;;;5036049;28;20416;-73
2022/08/25 03:06:08;;;;;;;6.28;3.58;;;24.40;65.90;;;;;;5053916;28;20029;-73
2022/08/25 03:08:35;;;;;;;6.13;3.50;;;24.50;65.80;;;;;;5053771;28;20032;-73
2022/08/25 03:11:01;;;;;;;5.28;3.42;;;24.50;65.80;;;;;;5020102;28;20029;-73
2022/08/25 03:13:27;;;;;;;4.72;3.42;;;24.50;65.80;;;;;;5035930;28;20028;-73
2022/08/25 03:15:53;;;;;;;6.28;3.67;;;24.50;65.70;;;;;;5053737;28;20029;-73
2022/08/25 03:18:19;;;;;;;5.07;3.47;;;24.40;65.70;;;;;;5053461;28;20021;-73
2022/08/25 03:20:45;;;;;;;5.78;3.97;;;24.50;65.90;;;;;;5036062;28;20025;-74
2022/08/25 03:23:11;;;;;;;5.90;4.03;;;24.40;65.80;;;;;;5035830;28;20032;-73
2022/08/25 03:28:25;;;;;;;6.63;3.60;;;24.40;65.90;;;;;;5035856;28;20036;-73
2022/08/25 03:30:52;;;;;;;4.70;3.38;;;24.40;65.80;;;;;;5035635;28;20029;-73
2022/08/25 03:33:18;;;;;;;4.82;3.38;;;24.40;66.50;;;;;;5053369;28;20055;-73
2022/08/25 03:35:44;;;;;;;5.00;3.40;;;24.40;65.80;;;;;;5035590;28;20041;-73
2022/08/25 03:38:10;;;;;;;5.35;3.70;;;24.40;65.80;;;;;;5053567;28;20115;-73
2022/08/25 03:40:37;;;;;;;5.82;3.53;;;24.40;65.80;;;;;;5053011;28;20109;-73
2022/08/25 03:43:03;;;;;;;5.40;3.33;;;24.40;65.90;;;;;;5035663;28;20388;-73
2022/08/25 03:45:29;;;;;;;4.97;3.30;;;24.40;65.90;;;;;;5035746;28;20398;-73
2022/08/25 03:47:55;;;;;;;4.75;3.50;;;24.40;65.90;;;;;;5002808;28;20033;-73
2022/08/25 03:50:22;;;;;;;5.32;3.75;;;24.40;65.80;;;;;;5052968;28;20384;-73
2022/08/25 03:52:55;;;;;;;7.25;3.75;;;24.40;65.90;;;;;;5053010;28;20396;-73
2022/08/25 03:55:23;;;;;;;6.72;3.78;;;24.40;65.80;;;;;;5018683;28;20408;-73
2022/08/25 03:57:51;;;;;;;6.43;3.50;;;24.40;65.80;;;;;;5035100;28;20021;-73
2022/08/25 04:00:17;;;;;;;5.53;3.63;;;24.40;65.90;;;;;;5018469;28;20056;-73
2022/08/25 04:02:44;;;;;;;5.43;3.47;;;24.40;65.80;;;;;;5051713;28;20074;-73
2022/08/25 04:05:10;;;;;;;5.85;3.45;;;24.40;65.80;;;;;;5052839;28;20025;-73
2022/08/25 04:07:37;;;;;;;5.57;3.17;;;24.40;65.90;;;;;;5052598;28;20036;-73
2022/08/25 04:10:08;;;;;;;4.38;3.55;;;24.40;65.80;;;;;;5034722;28;20044;-73
2022/08/25 04:12:35;;;;;;;5.88;3.90;;;24.40;65.90;;;;;;5018887;28;20167;-73
2022/08/25 04:15:02;;;;;;;4.75;3.50;;;24.40;65.90;;;;;;5018956;28;20028;-73
2022/08/25 04:17:28;;;;;;;5.07;3.58;;;24.40;65.80;;;;;;5019330;28;20029;-72
2022/08/25 04:19:53;;;;;;;4.35;3.35;;;24.40;65.80;;;;;;5054033;28;20040;-73
2022/08/25 04:22:19;;;;;;;5.07;3.38;;;24.40;65.90;;;;;;5036026;28;20021;-73
2022/08/25 04:24:45;;;;;;;4.80;3.30;;;24.40;65.90;;;;;;5053754;28;20032;-72
2022/08/25 04:27:11;;;;;;;5.90;3.67;;;24.40;65.80;;;;;;5054129;28;20029;-73
2022/08/25 04:29:37;;;;;;;5.28;3.40;;;24.40;65.70;;;;;;5036361;28;20087;-73
2022/08/25 04:32:03;;;;;;;5.35;3.50;;;24.40;65.80;;;;;;5054379;28;20087;-74
2022/08/25 04:34:29;;;;;;;4.22;3.53;;;24.40;65.60;;;;;;5036894;28;20036;-72
2022/08/25 04:36:55;;;;;;;6.22;3.65;;;24.40;65.60;;;;;;5035454;28;20033;-73
2022/08/25 04:39:21;;;;;;;5.53;3.67;;;24.40;65.60;;;;;;5053745;28;20028;-73
2022/08/25 04:41:48;;;;;;;4.00;3.20;;;24.40;66.10;;;;;;5035315;28;20477;-73
2022/08/25 04:44:14;;;;;;;5.97;3.38;;;24.50;65.60;;;;;;5052972;28;20028;-73
2022/08/25 04:46:40;;;;;;;6.68;3.80;;;24.40;65.50;;;;;;5018334;28;20397;-73
2022/08/25 04:49:06;;;;;;;6.25;3.88;;;24.40;65.50;;;;;;5018462;28;20024;-72
2022/08/25 04:51:35;;;;;;;5.55;3.55;;;24.40;65.50;;;;;;5018951;28;20040;-72
2022/08/25 04:54:04;;;;;;;5.70;3.90;;;24.40;65.50;;;;;;5034805;28;20536;-72
2022/08/25 04:56:32;;;;;;;4.47;3.60;;;24.40;65.60;;;;;;5052937;28;20033;-73
2022/08/25 04:59:03;;;;;;;4.72;3.40;;;24.40;65.50;;;;;;5034601;28;20037;-72
2022/08/25 05:01:29;;;;;;;4.93;3.50;;;24.40;65.60;;;;;;5027692;28;20026;-72
2022/08/25 05:03:58;;;;;;;6.13;3.90;;;24.40;65.60;;;;;;5017427;28;20025;-72
2022/08/25 05:06:24;;;;;;;4.43;3.47;;;24.40;65.60;;;;;;4998130;28;20032;-73
2022/08/25 05:08:50;;;;;;;5.88;3.40;;;24.40;66.20;;;;;;4997672;28;20079;-72
2022/08/25 05:11:17;;;;;;;6.07;3.67;;;24.40;65.70;;;;;;5014548;28;20453;-73
2022/08/25 05:13:45;;;;;;;5.22;3.88;;;24.40;65.70;;;;;;4981994;28;20124;-73
2022/08/25 05:16:11;;;;;;;5.88;3.60;;;24.40;65.70;;;;;;5014405;28;20120;-73
2022/08/25 05:18:38;;;;;;;5.88;3.97;;;24.40;65.70;;;;;;5031860;28;20220;-73
2022/08/25 05:21:06;;;;;;;5.05;3.60;;;24.40;65.70;;;;;;5014597;28;20088;-72
2022/08/25 05:23:32;;;;;;;5.30;3.60;;;24.40;65.70;;;;;;5014191;28;20060;-73
2022/08/25 05:26:03;;;;;;;4.38;3.47;;;24.40;65.80;;;;;;5033559;28;20030;-74
2022/08/25 05:28:29;;;;;;;5.90;3.63;;;24.40;65.80;;;;;;5032042;28;20369;-74
2022/08/25 05:31:00;;;;;;;4.93;3.60;;;24.40;65.80;;;;;;5031639;28;20088;-73
2022/08/25 05:33:26;;;;;;;5.53;3.85;;;24.30;65.80;;;;;;4998164;28;20030;-73
2022/08/25 05:35:52;;;;;;;6.03;3.90;;;24.40;65.80;;;;;;5031872;28;20022;-73
2022/08/25 05:38:18;;;;;;;4.40;3.60;;;24.40;65.70;;;;;;5031417;28;20033;-73
2022/08/25 05:40:44;;;;;;;4.70;3.50;;;24.40;65.70;;;;;;5031560;28;20029;-73
2022/08/25 05:43:11;;;;;;;5.30;3.33;;;24.40;65.80;;;;;;5013736;28;20488;-73
2022/08/25 05:45:38;;;;;;;4.68;3.63;;;24.40;65.70;;;;;;5031941;28;20025;-73
2022/08/25 05:48:03;;;;;;;5.35;3.90;;;24.30;65.70;;;;;;5031782;28;20603;-73
2022/08/25 05:50:29;;;;;;;5.65;4.10;;;24.30;65.70;;;;;;5016810;28;20037;-74
2022/08/25 05:52:55;;;;;;;4.97;3.55;;;24.40;66.30;;;;;;5032328;28;20048;-74
2022/08/25 05:55:21;;;;;;;5.88;4.10;;;24.40;65.70;;;;;;5017918;28;20112;-74
2022/08/25 05:57:47;;;;;;;5.10;3.97;;;24.40;65.70;;;;;;5033882;28;20022;-73
2022/08/25 06:00:13;;;;;;;6.53;3.85;;;24.40;65.70;;;;;;5032554;28;20029;-73
2022/08/25 06:02:47;;;;;;;4.85;3.67;;;24.30;65.70;;;;;;5015173;28;20036;-73
2022/08/25 06:05:15;;;;;;;4.47;3.50;;;24.40;65.70;;;;;;5033238;28;20105;-74
2022/08/25 06:07:41;;;;;;;4.78;3.88;;;24.40;65.60;;;;;;5015726;28;20041;-73
2022/08/25 06:10:10;;;;;;;4.78;3.35;;;24.40;65.60;;;;;;4998093;28;20044;-73
2022/08/25 06:12:37;;;;;;;5.10;3.70;;;24.40;65.50;;;;;;5014358;28;20401;-73
2022/08/25 06:15:04;;;;;;;4.43;3.20;;;24.40;65.40;;;;;;4997691;28;20465;-74
2022/08/25 06:17:30;;;;;;;6.05;3.88;;;24.40;65.40;;;;;;5013440;28;20025;-73
2022/08/25 06:19:56;;;;;;;4.97;3.67;;;24.40;65.40;;;;;;4996969;28;20124;-74
2022/08/25 06:22:24;;;;;;;5.07;3.63;;;24.40;65.40;;;;;;5013586;28;20041;-74
2022/08/25 06:24:50;;;;;;;4.97;3.42;;;24.40;65.40;;;;;;5013342;28;20172;-73
2022/08/25 06:27:16;;;;;;;5.93;4.05;;;24.40;65.30;;;;;;5015771;28;20120;-74
2022/08/25 06:29:42;;;;;;;5.90;3.95;;;24.40;65.40;;;;;;5034340;28;20168;-75
2022/08/25 06:32:08;;;;;;;5.63;4.03;;;24.40;65.30;;;;;;5034620;28;20032;-76
2022/08/25 06:34:33;;;;;;;4.53;3.58;;;24.40;65.30;;;;;;5017445;28;20443;-75
2022/08/25 06:37:00;;;;;;;5.72;3.58;;;24.40;65.40;;;;;;5016942;28;20041;-75
2022/08/25 06:39:25;;;;;;;4.45;3.80;;;24.40;65.30;;;;;;5000099;28;20397;-75
2022/08/25 06:41:55;;;;;;;5.00;3.55;;;24.40;65.40;;;;;;5034905;28;20021;-76
2022/08/25 06:44:26;;;;;;;3.92;3.38;;;24.40;65.50;;;;;;5017735;28;20021;-75
2022/08/25 06:46:52;;;;;;;4.90;3.70;;;24.40;65.50;;;;;;5034574;28;20030;-75
2022/08/25 06:49:19;;;;;;;7.22;3.72;;;24.40;65.50;;;;;;5016415;28;20025;-74
2022/08/25 06:51:45;;;;;;;6.13;3.75;;;24.40;65.60;;;;;;5016478;28;20029;-73
2022/08/25 06:54:11;;;;;;;5.28;3.70;;;24.40;65.60;;;;;;5000371;28;20033;-75
2022/08/25 06:56:39;;;;;;;4.38;3.58;;;24.40;65.60;;;;;;5000625;28;20056;-75
2022/08/25 06:59:07;;;;;;;4.82;3.67;;;24.40;66.10;;;;;;5000398;28;20038;-74
2022/08/25 07:01:34;;;;;;;5.00;3.65;;;24.40;65.60;;;;;;5016608;28;20029;-75
2022/08/25 07:04:01;;;;;;;4.60;3.53;;;24.40;65.60;;;;;;5000293;28;20033;-76
2022/08/25 07:06:34;;;;;;;5.28;3.60;;;24.40;65.50;;;;;;5000716;28;20109;-75
2022/08/25 07:09:00;;;;;;;5.97;3.65;;;24.40;65.60;;;;;;5034038;28;20028;-75
2022/08/25 07:11:27;;;;;;;5.28;3.60;;;24.40;65.60;;;;;;5034667;28;20489;-74
2022/08/25 07:13:53;;;;;;;5.15;3.55;;;24.40;65.60;;;;;;5034699;28;20025;-75
2022/08/25 07:16:19;;;;;;;4.80;3.80;;;24.40;65.60;;;;;;5035473;28;20021;-75
2022/08/25 07:18:46;;;;;;;4.35;3.38;;;24.40;65.60;;;;;;5035446;28;20025;-75
2022/08/25 07:21:13;;;;;;;5.40;3.70;;;24.40;65.60;;;;;;5034045;28;20026;-74
2022/08/25 07:23:40;;;;;;;4.38;3.60;;;24.40;65.60;;;;;;5033866;28;20025;-74
2022/08/25 07:26:20;;;;;;;5.22;3.83;;;24.40;65.60;;;;;;5000019;28;20041;-74
2022/08/25 07:28:46;;;;;;;4.95;3.53;;;24.40;65.50;;;;;;5033255;28;20025;-74
2022/08/25 07:31:12;;;;;;;5.47;3.50;;;24.40;65.50;;;;;;5033593;28;20036;-75
2022/08/25 07:35:13;;;;;;;5.65;3.45;;;24.30;65.50;;;;;;4999353;28;20393;-75
2022/08/25 07:36:24;;;;;;;4.70;3.53;;;24.30;65.60;;;;;;5015673;28;20041;-75
2022/08/25 07:38:50;;;;;;;4.93;3.65;;;24.40;65.60;;;;;;5015475;28;20026;-74
2022/08/25 07:41:16;;;;;;;5.97;3.67;;;24.40;65.50;;;;;;5033456;28;20025;-74
2022/08/25 07:43:43;;;;;;;5.10;3.72;;;24.40;65.60;;;;;;5033183;28;20026;-75
2022/08/25 07:46:10;;;;;;;4.25;3.40;;;24.40;65.50;;;;;;5033320;28;20022;-75
2022/08/25 07:48:35;;;;;;;5.18;3.78;;;24.40;65.40;;;;;;5032880;28;20036;-75
2022/08/25 07:51:07;;;;;;;4.50;3.45;;;24.40;65.40;;;;;;5033079;28;20037;-74
2022/08/25 07:53:33;;;;;;;5.10;3.85;;;24.40;65.40;;;;;;4999194;28;20041;-75
2022/08/25 07:55:59;;;;;;;6.22;3.90;;;24.40;65.30;;;;;;5015336;28;20060;-75
2022/08/25 07:58:25;;;;;;;6.80;3.60;;;24.40;65.30;;;;;;5032964;28;20061;-74
2022/08/25 08:00:52;;;;;;;4.95;3.60;;;24.40;65.30;;;;;;5032721;28;20029;-75
2022/08/25 08:03:19;;;;;;;4.72;3.80;;;24.40;65.30;;;;;;5015431;28;20029;-75
2022/08/25 08:05:45;;;;;;;3.92;3.45;;;24.40;65.30;;;;;;5032886;28;20124;-75
2022/08/25 08:08:12;;;;;;;3.92;3.25;;;24.40;66.00;;;;;;5015360;28;20537;-74
2022/08/25 08:10:41;;;;;;;4.38;3.60;;;24.40;65.40;;;;;;5032476;28;20390;-74
2022/08/25 08:13:08;;;;;;;4.72;3.42;;;24.50;65.50;;;;;;5015251;28;20029;-75
2022/08/25 08:15:35;;;;;;;4.50;3.60;;;24.40;65.50;;;;;;4998749;28;20037;-75
2022/08/25 08:18:01;;;;;;;4.95;3.65;;;24.40;65.40;;;;;;5014855;28;20041;-74
2022/08/25 08:20:27;;;;;;;4.65;3.40;;;24.40;65.50;;;;;;5032401;28;20060;-74
2022/08/25 08:22:54;;;;;;;5.03;3.78;;;24.40;65.40;;;;;;5032546;28;20021;-75
2022/08/25 08:25:20;;;;;;;4.60;3.70;;;24.40;65.40;;;;;;5032531;28;20057;-75
2022/08/25 08:27:45;;;;;;;5.00;3.90;;;24.40;65.50;;;;;;5032572;28;20064;-75
2022/08/25 08:30:12;;;;;;;6.07;3.85;;;24.40;65.50;;;;;;5014356;28;20033;-75
2022/08/25 08:32:38;;;;;;;6.00;4.30;;;24.40;65.60;;;;;;5032393;28;20525;-75
2022/08/25 08:35:04;;;;;;;5.10;4.10;;;24.40;65.50;;;;;;5032287;28;20112;-75
2022/08/25 08:37:31;;;;;;;5.43;4.28;;;24.40;65.50;;;;;;5032286;28;20040;-74
2022/08/25 08:40:00;;;;;;;4.80;3.40;;;24.40;65.50;;;;;;5031992;28;20021;-75
2022/08/25 08:42:47;;;;;;;5.25;3.60;;;24.40;65.60;;;;;;4998265;28;20029;-74
2022/08/25 08:45:31;;;;;;;6.15;3.90;;;24.40;65.50;;;;;;5032144;28;20025;-75
2022/08/25 08:48:27;;;;;;;5.35;3.55;;;24.40;65.50;;;;;;4998198;28;20085;-75
2022/08/25 08:51:03;;;;;;;5.30;3.78;;;24.40;65.70;;;;;;5014004;28;20037;-75
2022/08/25 08:53:48;;;;;;;6.50;3.95;;;24.40;65.60;;;;;;5031953;28;20497;-75
2022/08/25 08:56:42;;;;;;;6.22;3.95;;;24.40;65.60;;;;;;5031916;28;20033;-75
2022/08/25 08:59:26;;;;;;;6.65;3.55;;;24.40;65.70;;;;;;5028130;28;20033;-75
2022/08/25 09:01:58;;;;;;;5.68;3.95;;;24.40;65.70;;;;;;5031913;28;20104;-75
2022/08/25 09:04:33;;;;;;;5.80;4.20;;;24.40;65.70;;;;;;5014425;28;20036;-75
2022/08/25 09:07:01;;;;;;;5.63;3.90;;;24.40;65.60;;;;;;4998110;28;20029;-75
2022/08/25 09:09:31;;;;;;;5.30;4.05;;;24.40;65.70;;;;;;5013872;28;20420;-75
2022/08/25 09:12:08;;;;;;;6.15;4.32;;;24.40;65.70;;;;;;5013949;28;20033;-75
2022/08/25 09:14:42;;;;;;;4.75;3.83;;;24.40;65.70;;;;;;4998470;28;20572;-74
2022/08/25 09:17:24;;;;;;;5.47;4.43;;;24.40;65.60;;;;;;4997719;28;20382;-75
2022/08/25 09:20:16;;;;;;;5.43;3.80;;;24.40;65.50;;;;;;5031676;28;20465;-75
2022/08/25 09:23:09;;;;;;;5.35;3.92;;;24.50;65.60;;;;;;5014190;28;20026;-75
2022/08/25 09:25:54;;;;;;;4.93;3.83;;;24.50;65.80;;;;;;5031694;28;20025;-74
2022/08/25 09:28:49;;;;;;;5.38;3.90;;;24.50;65.60;;;;;;5014077;28;20037;-74
2022/08/25 09:31:20;;;;;;;4.78;3.63;;;24.50;65.70;;;;;;5031651;28;20031;-75
2022/08/25 09:33:46;;;;;;;5.55;3.90;;;24.50;65.50;;;;;;5013866;28;20488;-75
2022/08/25 09:36:13;;;;;;;5.50;3.85;;;24.50;65.40;;;;;;4997486;28;20053;-75
2022/08/25 09:38:39;;;;;;;5.20;3.78;;;24.50;65.50;;;;;;5013481;28;20029;-75
2022/08/25 09:41:06;;;;;;;6.18;4.25;;;24.50;65.50;;;;;;5031406;28;20076;-75
2022/08/25 09:43:35;;;;;;;4.20;3.60;;;24.50;65.40;;;;;;5031717;28;20033;-74
2022/08/25 09:46:08;;;;;;;;;;;24.50;65.30;;;;;;5014435;28;20099;-75
2022/08/25 09:48:42;;;;;;;7.38;4.28;;;24.50;65.40;;;;;;5013843;28;19917;-74
2022/08/25 09:51:25;;;;;;;6.40;4.05;;;24.60;65.60;;;;;;5032249;28;20057;-74
2022/08/25 09:54:02;;;;;;;6.15;3.80;;;24.50;65.50;;;;;;5013807;28;20041;-74
2022/08/25 09:56:31;;;;;;;5.05;3.88;;;24.60;65.50;;;;;;5031400;28;20053;-74
2022/08/25 09:59:28;;;;;;;5.43;3.70;;;24.60;65.50;;;;;;5031141;28;20099;-75
2022/08/25 10:01:57;;;;;;;4.90;3.67;;;24.60;65.70;;;;;;4964249;28;20489;-75
2022/08/25 10:04:37;;;;;;;5.88;3.85;;;24.50;65.50;;;;;;5001383;28;20102;-75
2022/08/25 10:07:26;;;;;;;5.00;3.80;;;24.50;65.40;;;;;;5001260;28;20029;-75
2022/08/25 10:10:00;;;;;;;6.90;4.07;;;24.50;65.60;;;;;;5034816;28;20087;-75
2022/08/25 10:12:34;;;;;;;5.00;3.80;;;24.50;65.50;;;;;;5034933;28;20041;-74
2022/08/25 10:15:14;;;;;;;5.22;3.53;;;24.50;65.60;;;;;;5001205;28;20099;-75
2022/08/25 10:17:40;;;;;;;6.22;3.85;;;24.50;65.80;;;;;;5034988;28;20059;-75
2022/08/25 10:20:09;;;;;;;3.80;3.30;;;24.50;65.70;;;;;;5034686;28;20502;-75
2022/08/25 10:22:39;;;;;;;5.30;4.07;;;24.50;65.70;;;;;;5016755;28;20037;-75
2022/08/25 10:25:08;;;;;;;5.63;3.80;;;24.50;65.60;;;;;;5034632;28;20038;-74
2022/08/25 10:28:04;;;;;;;6.22;3.70;;;24.50;65.60;;;;;;5017064;28;20039;-75
2022/08/25 10:30:36;;;;;;;5.55;4.10;;;24.50;65.70;;;;;;5000399;28;20502;-75
2022/08/25 10:33:21;;;;;;;5.50;3.63;;;24.50;65.60;;;;;;5016940;28;20038;-75
2022/08/25 10:36:38;;;;;;;5.75;3.83;;;24.60;65.90;;;;;;5034754;28;20067;-75
2022/08/25 10:39:04;;;;;;;4.85;3.33;;;24.50;65.60;;;;;;4934622;29;20042;-75
2022/08/25 10:42:10;;;;;;;4.53;3.80;;;24.50;65.70;;;;;;4993670;28;20393;-75
2022/08/25 10:48:32;;;;;;;4.35;3.30;;;24.50;65.70;;;;;;5034377;28;20034;-75
2022/08/25 10:51:20;;;;;;;5.80;4.05;;;24.50;65.80;;;;;;4919263;29;20036;-74
2022/08/25 10:53:59;;;;;;;4.20;3.30;;;24.50;65.70;;;;;;4934720;29;20079;-75
2022/08/25 10:56:32;;;;;;;4.70;3.75;;;24.50;65.80;;;;;;5012859;28;20063;-74
2022/08/25 10:59:17;;;;;;;5.43;3.53;;;24.50;65.70;;;;;;5000495;28;20473;-74
2022/08/25 11:01:57;;;;;;;5.32;3.60;;;24.50;65.80;;;;;;5034081;28;20040;-74
2022/08/25 11:04:51;;;;;;;4.60;3.50;;;24.50;65.70;;;;;;5034062;28;20025;-74
2022/08/25 11:07:21;;;;;;;4.32;3.40;;;24.60;65.80;;;;;;5033992;28;20030;-75
2022/08/25 11:09:51;;;;;;;4.25;3.53;;;24.50;65.70;;;;;;5033607;28;20034;-74
2022/08/25 11:12:38;;;;;;;4.82;3.70;;;24.60;65.70;;;;;;5015726;28;20045;-74
2022/08/25 11:15:13;;;;;;;5.13;3.30;;;24.60;65.80;;;;;;5034132;28;20487;-74
2022/08/25 11:17:51;;;;;;;4.47;3.60;;;24.60;65.70;;;;;;5033832;28;20030;-74
2022/08/25 11:20:33;;;;;;;4.27;3.40;;;24.60;65.70;;;;;;5015899;28;20041;-73
2022/08/25 11:23:18;;;;;;;4.35;3.35;;;24.60;65.60;;;;;;5015809;28;20314;-74
2022/08/25 11:25:49;;;;;;;4.82;3.40;;;24.60;65.60;;;;;;5033831;28;20061;-74
2022/08/25 11:28:46;;;;;;;5.00;3.60;;;24.60;65.70;;;;;;5033673;28;20060;-74
2022/08/25 11:31:14;;;;;;;4.38;3.28;;;24.60;65.50;;;;;;5016115;28;20397;-74
2022/08/25 11:33:39;;;;;;;5.28;3.67;;;24.60;65.60;;;;;;5015864;28;20044;-74
2022/08/25 11:36:28;;;;;;;5.00;3.47;;;24.60;65.60;;;;;;5015921;28;20033;-74
2022/08/25 11:39:12;;;;;;;5.53;3.67;;;24.60;65.90;;;;;;4999335;28;20037;-74
2022/08/25 11:42:00;;;;;;;4.47;3.67;;;24.60;65.60;;;;;;4999451;28;20280;-74
2022/08/25 11:44:39;;;;;;;5.20;3.78;;;24.60;65.60;;;;;;5015842;28;20029;-74
2022/08/25 11:47:29;;;;;;;4.68;3.42;;;24.60;65.70;;;;;;4999480;28;20063;-74
2022/08/25 11:50:08;;;;;;;4.88;3.50;;;24.60;65.60;;;;;;4983044;28;20651;-74
2022/08/25 11:52:36;;;;;;;4.35;3.25;;;24.50;65.60;;;;;;5015341;28;20045;-74
2022/08/25 11:55:12;;;;;;;4.78;3.45;;;24.60;65.70;;;;;;5033152;28;20029;-74
2022/08/25 11:57:39;;;;;;;4.93;3.40;;;24.50;65.60;;;;;;5033074;28;20466;-74
2022/08/25 12:00:11;;;;;;;4.60;3.30;;;24.60;65.70;;;;;;5015294;28;20029;-74
2022/08/25 12:02:46;;;;;;;5.93;3.58;;;24.60;65.70;;;;;;4982956;28;20496;-74
2022/08/25 12:05:18;;;;;;;4.32;3.40;;;24.50;65.60;;;;;;5032963;28;20036;-74
2022/08/25 12:11:07;;;;;;;3.67;2.90;;;24.50;65.70;;;;;;4975335;28;20038;-74
2022/08/25 12:13:49;;;;;;;5.90;3.80;;;24.60;65.70;;;;;;5027394;28;20040;-74
2022/08/25 12:16:30;;;;;;;4.55;3.25;;;24.60;65.70;;;;;;5032847;28;20128;-74
2022/08/25 12:19:25;;;;;;;4.07;3.33;;;24.60;65.70;;;;;;5014416;28;20041;-74
2022/08/25 12:21:54;;;;;;;5.97;3.47;;;24.50;65.60;;;;;;4998930;28;20045;-74
2022/08/25 12:24:40;;;;;;;5.35;3.75;;;24.60;65.70;;;;;;5031742;28;20021;-74
2022/08/25 12:27:20;;;;;;;4.45;3.35;;;24.60;65.70;;;;;;4998912;28;20129;-74
2022/08/25 12:30:00;;;;;;;4.85;3.25;;;24.60;65.80;;;;;;5032159;28;20103;-74
2022/08/25 12:33:02;;;;;;;4.47;3.20;;;24.50;65.60;;;;;;5032497;28;20100;-74
2022/08/25 12:36:02;;;;;;;4.00;3.28;;;24.50;65.60;;;;;;5032434;28;20029;-74
2022/08/25 12:38:40;;;;;;;4.90;3.55;;;24.60;65.70;;;;;;5014456;28;20147;-74
2022/08/25 12:41:10;;;;;;;3.95;3.10;;;24.50;65.70;;;;;;5032406;28;20036;-74
2022/08/25 12:43:42;;;;;;;3.92;3.08;;;24.60;65.70;;;;;;5032108;28;20401;-74
2022/08/25 12:46:26;;;;;;;3.60;3.00;;;24.60;65.70;;;;;;5014752;28;20057;-74
2022/08/25 12:48:57;;;;;;;4.80;3.25;;;24.60;65.70;;;;;;5031803;28;20072;-74
2022/08/25 12:51:46;;;;;;;5.05;3.50;;;24.60;65.70;;;;;;5032120;28;20116;-75
2022/08/25 12:54:12;;;;;;;4.90;3.50;;;24.60;65.60;;;;;;5055988;23;20144;-77
2022/08/25 12:56:43;;;;;;;4.80;3.20;;;24.60;65.70;;;;;;5060726;28;20108;-77
2022/08/25 12:59:18;;;;;;;4.68;3.40;;;24.60;65.60;;;;;;5071852;28;20046;-77
2022/08/25 13:02:22;;;;;;;3.33;2.83;;;24.60;65.60;;;;;;5072084;28;20032;-77
2022/08/25 13:05:13;;;;;;;4.05;3.08;;;24.60;65.60;;;;;;5051947;28;20503;-77
2022/08/25 13:08:18;;;;;;;3.78;3.20;;;24.60;65.60;;;;;;5034274;28;20032;-77
2022/08/25 13:11:06;;;;;;;4.20;3.50;;;24.60;65.50;;;;;;5051661;28;20052;-76
2022/08/25 13:13:43;;;;;;;4.70;3.63;;;24.60;65.60;;;;;;5033899;28;20036;-77
2022/08/25 13:16:26;;;;;;;3.72;3.03;;;24.60;65.60;;;;;;5051799;28;20091;-77
2022/08/25 13:18:57;;;;;;;5.65;3.60;;;24.60;65.60;;;;;;5051352;28;20481;-77